Time;durP1;ratioP1;P1;durP2;ratioP2;P2;SDS_P1;SDS_P2;PMS_P1;PMS_P2;Temp;Humidity;BMP_temperature;BMP_pressure;BME280_temperature;BME280_humidity;BME280_pressure;Samples;Min_cycle;Max_cycle;Signal;HPM_P1;HPM_P2
2023/08/16 00:01:43;;;;;;;12.10;8.60;;;;;;;18.44;100.00;101176.08;109150;1254;58417;-56
2023/08/16 00:04:09;;;;;;;14.10;9.50;;;;;;;18.41;100.00;101177.86;109173;1253;58472;-58
2023/08/16 00:06:41;;;;;;;10.50;8.80;;;;;;;18.37;100.00;101178.59;107896;1254;73142;-60
2023/08/16 00:09:08;;;;;;;11.70;8.80;;;;;;;18.34;100.00;101179.39;108176;1257;70539;-56
2023/08/16 00:11:35;;;;;;;13.10;9.50;;;;;;;18.29;100.00;101175.15;107761;1252;71478;-61
2023/08/16 00:14:01;;;;;;;15.60;10.60;;;;;;;18.26;100.00;101175.29;107580;1253;61027;-57
2023/08/16 00:16:29;;;;;;;13.30;9.90;;;;;;;18.23;100.00;101171.75;107545;1251;60528;-53
2023/08/16 00:18:56;;;;;;;13.60;10.10;;;;;;;18.21;100.00;101170.03;107381;1254;60402;-59
2023/08/16 00:21:22;;;;;;;12.20;9.80;;;;;;;18.19;100.00;101173.27;107517;1253;60978;-52
2023/08/16 00:23:48;;;;;;;13.00;10.40;;;;;;;18.16;100.00;101176.17;108416;1257;58349;-55
2023/08/16 00:26:15;;;;;;;13.60;10.70;;;;;;;18.14;100.00;101174.23;107894;1256;60467;-60
2023/08/16 00:28:42;;;;;;;14.70;11.20;;;;;;;18.13;100.00;101174.35;108817;1254;60412;-64
2023/08/16 00:31:08;;;;;;;13.50;10.80;;;;;;;18.12;100.00;101171.19;107355;1252;59224;-58
2023/08/16 00:33:35;;;;;;;14.90;10.80;;;;;;;18.10;100.00;101171.65;107815;1254;59559;-54
2023/08/16 00:36:01;;;;;;;15.10;11.70;;;;;;;18.09;100.00;101173.44;107558;1253;60293;-55
2023/08/16 00:38:28;;;;;;;15.80;11.00;;;;;;;18.08;100.00;101175.41;107439;1251;60542;-60
2023/08/16 00:40:54;;;;;;;16.20;11.50;;;;;;;18.08;100.00;101173.96;107366;1252;60537;-55
2023/08/16 00:43:21;;;;;;;15.00;10.70;;;;;;;18.07;100.00;101170.02;107750;1254;61891;-58
2023/08/16 00:45:48;;;;;;;13.90;11.50;;;;;;;18.07;100.00;101178.65;108696;1254;58382;-60
2023/08/16 00:48:16;;;;;;;13.90;11.50;;;;;;;18.05;100.00;101181.50;108523;1252;71326;-56
2023/08/16 00:50:47;;;;;;;15.20;12.00;;;;;;;18.01;100.00;101181.48;107647;1256;61297;-57
2023/08/16 00:53:17;;;;;;;14.80;11.20;;;;;;;17.98;100.00;101177.77;107671;1253;60417;-55
2023/08/16 00:55:44;;;;;;;14.60;11.50;;;;;;;17.96;100.00;101176.11;107324;1252;73188;-56
2023/08/16 00:58:11;;;;;;;14.70;11.50;;;;;;;17.96;100.00;101173.98;107413;1253;70032;-55
2023/08/16 01:00:38;;;;;;;16.30;11.40;;;;;;;17.95;100.00;101178.40;107782;1255;71380;-58
2023/08/16 01:03:04;;;;;;;15.50;11.50;;;;;;;17.94;100.00;101181.87;107781;1254;60865;-56
2023/08/16 01:05:32;;;;;;;14.50;11.40;;;;;;;17.93;100.00;101179.96;108543;1254;60476;-57
2023/08/16 01:07:59;;;;;;;17.70;11.70;;;;;;;17.94;100.00;101180.05;107733;1253;73689;-56
2023/08/16 01:10:35;;;;;;;16.30;11.60;;;;;;;17.94;100.00;101179.19;107599;1251;70038;-60
2023/08/16 01:13:13;;;;;;;13.40;11.80;;;;;;;17.93;100.00;101180.50;107570;1254;71546;-58
2023/08/16 01:15:44;;;;;;;13.20;10.90;;;;;;;17.93;100.00;101178.77;107349;1252;62041;-56
2023/08/16 01:18:12;;;;;;;15.70;11.00;;;;;;;17.94;100.00;101174.39;107497;1253;60394;-59
2023/08/16 01:20:40;;;;;;;14.90;10.50;;;;;;;17.94;100.00;101175.30;108305;1254;72887;-56
2023/08/16 01:23:12;;;;;;;16.70;11.00;;;;;;;17.92;100.00;101178.58;108084;1251;70060;-59
2023/08/16 01:26:28;;;;;;;15.00;10.60;;;;;;;17.91;100.00;101181.19;108287;1251;71488;-54
2023/08/16 01:28:57;;;;;;;13.30;10.00;;;;;;;17.89;100.00;101180.45;107206;1260;62806;-57
2023/08/16 01:31:23;;;;;;;16.30;10.10;;;;;;;17.86;100.00;101179.99;107079;1260;60624;-60
2023/08/16 01:33:50;;;;;;;16.90;10.20;;;;;;;17.84;100.00;101181.86;107139;1251;71662;-55
2023/08/16 01:36:17;;;;;;;14.70;10.40;;;;;;;17.83;100.00;101182.15;107527;1253;71214;-58
2023/08/16 01:38:44;;;;;;;16.60;10.00;;;;;;;17.83;100.00;101187.81;107782;1252;60848;-60
2023/08/16 01:41:20;;;;;;;13.90;10.20;;;;;;;17.81;100.00;101187.17;108466;1254;62088;-60
2023/08/16 01:43:47;;;;;;;13.30;10.30;;;;;;;17.81;100.00;101187.29;108458;1253;60653;-59
2023/08/16 01:46:15;;;;;;;12.40;9.40;;;;;;;17.79;100.00;101188.86;108220;1254;73888;-60
2023/08/16 01:48:44;;;;;;;13.50;9.60;;;;;;;17.77;100.00;101184.16;107598;1251;71183;-59
2023/08/16 01:51:11;;;;;;;16.70;9.40;;;;;;;17.75;100.00;101181.94;108196;1251;71447;-61
2023/08/16 01:53:37;;;;;;;14.70;9.60;;;;;;;17.73;100.00;101183.34;107625;1251;60719;-60
2023/08/16 01:56:04;;;;;;;13.40;10.30;;;;;;;17.71;100.00;101185.55;107770;1254;60397;-55
2023/08/16 01:58:31;;;;;;;15.60;9.20;;;;;;;17.70;100.00;101187.61;108202;1254;73206;-59
2023/08/16 02:00:57;;;;;;;15.00;9.80;;;;;;;17.69;100.00;101191.53;108346;1254;71046;-56
2023/08/16 02:03:24;;;;;;;13.80;9.50;;;;;;;17.68;100.00;101193.52;108324;1251;72850;-58
2023/08/16 02:05:50;;;;;;;14.00;9.00;;;;;;;17.67;100.00;101192.40;108228;1251;60953;-56
2023/08/16 02:08:17;;;;;;;15.20;9.20;;;;;;;17.65;100.00;101190.95;107910;1251;60338;-56
2023/08/16 02:10:43;;;;;;;15.00;9.60;;;;;;;17.65;100.00;101195.02;107699;1251;60493;-60
2023/08/16 02:13:10;;;;;;;14.30;9.40;;;;;;;17.64;100.00;101197.08;107737;1254;60434;-61
2023/08/16 02:15:36;;;;;;;15.10;9.60;;;;;;;17.60;100.00;101197.73;107872;1251;60525;-57
2023/08/16 02:18:03;;;;;;;13.30;9.60;;;;;;;17.58;100.00;101202.23;108665;1254;59538;-60
2023/08/16 02:20:30;;;;;;;14.80;9.50;;;;;;;17.56;100.00;101205.18;108361;1251;60480;-60
2023/08/16 02:22:56;;;;;;;13.50;9.30;;;;;;;17.54;100.00;101208.07;108119;1252;60466;-61
2023/08/16 02:25:23;;;;;;;11.40;9.00;;;;;;;17.52;100.00;101206.13;107614;1252;59257;-59
2023/08/16 02:27:50;;;;;;;13.50;8.80;;;;;;;17.49;100.00;101201.18;108254;1251;75085;-57
2023/08/16 02:30:16;;;;;;;12.50;9.20;;;;;;;17.47;100.00;101204.16;107725;1251;60431;-58
2023/08/16 02:32:42;;;;;;;14.40;9.50;;;;;;;17.45;100.00;101199.61;107818;1253;61725;-61
2023/08/16 02:35:09;;;;;;;17.30;9.60;;;;;;;17.42;100.00;101203.16;107905;1252;60659;-60
2023/08/16 02:37:35;;;;;;;13.00;9.00;;;;;;;17.40;100.00;101206.21;108344;1253;60447;-57
2023/08/16 02:40:03;;;;;;;15.90;9.60;;;;;;;17.37;100.00;101206.55;108594;1251;58377;-58
2023/08/16 02:42:30;;;;;;;15.40;9.80;;;;;;;17.34;100.00;101204.34;107806;1254;62044;-56
2023/08/16 02:44:56;;;;;;;15.90;10.00;;;;;;;17.31;100.00;101212.42;107941;1253;59370;-57
2023/08/16 02:47:23;;;;;;;14.90;9.40;;;;;;;17.29;100.00;101213.61;107757;1251;59340;-61
2023/08/16 02:49:49;;;;;;;17.00;9.60;;;;;;;17.28;100.00;101211.88;109110;1254;71737;-60
2023/08/16 02:52:16;;;;;;;14.30;9.60;;;;;;;17.28;100.00;101211.27;108762;1254;60435;-60
2023/08/16 02:54:42;;;;;;;19.80;10.00;;;;;;;17.27;100.00;101210.68;109052;1254;58435;-56
2023/08/16 02:57:09;;;;;;;17.10;9.50;;;;;;;17.26;100.00;101207.27;109031;1252;58648;-58
2023/08/16 02:59:41;;;;;;;12.90;8.70;;;;;;;17.24;100.00;101205.28;109076;1251;58238;-58
2023/08/16 03:02:08;;;;;;;14.60;8.70;;;;;;;17.24;100.00;101209.65;108840;1253;71269;-59
2023/08/16 03:04:39;;;;;;;13.50;9.20;;;;;;;17.23;100.00;101211.34;108292;1251;72725;-58
2023/08/16 03:07:09;;;;;;;17.10;10.00;;;;;;;17.22;100.00;101213.32;108032;1254;61978;-58
2023/08/16 03:09:37;;;;;;;15.50;9.10;;;;;;;17.21;100.00;101213.61;108302;1251;60138;-55
2023/08/16 03:12:05;;;;;;;13.50;8.70;;;;;;;17.20;100.00;101220.05;108672;1251;74258;-60
2023/08/16 03:14:31;;;;;;;15.70;9.60;;;;;;;17.18;100.00;101220.05;108621;1253;69945;-57
2023/08/16 03:16:59;;;;;;;13.90;9.20;;;;;;;17.17;100.00;101220.09;107916;1253;71550;-55
2023/08/16 03:19:26;;;;;;;13.20;9.20;;;;;;;17.16;100.00;101221.41;108530;1254;61750;-58
2023/08/16 03:21:56;;;;;;;12.30;8.90;;;;;;;17.16;100.00;101227.40;108511;1255;59280;-55
2023/08/16 03:24:22;;;;;;;15.10;9.30;;;;;;;17.13;100.00;101226.59;107937;1251;72722;-56
2023/08/16 03:26:49;;;;;;;14.10;9.70;;;;;;;17.10;100.00;101227.14;108473;1253;69414;-57
2023/08/16 03:29:16;;;;;;;12.40;9.00;;;;;;;17.08;100.00;101229.23;108229;1251;71821;-58
2023/08/16 03:31:42;;;;;;;12.50;8.90;;;;;;;17.07;100.00;101232.04;108701;1253;58468;-54
2023/08/16 03:34:09;;;;;;;11.50;8.60;;;;;;;17.05;100.00;101228.90;108155;1252;59100;-59
2023/08/16 03:36:35;;;;;;;13.50;9.20;;;;;;;17.03;100.00;101228.09;108728;1253;58597;-57
2023/08/16 03:39:05;;;;;;;17.00;8.90;;;;;;;17.03;100.00;101234.27;108167;1251;60379;-58
2023/08/16 03:41:33;;;;;;;14.90;9.80;;;;;;;17.05;100.00;101237.57;108064;1251;71886;-60
2023/08/16 03:44:00;;;;;;;13.50;9.00;;;;;;;17.04;100.00;101238.52;108213;1251;61710;-55
2023/08/16 03:46:27;;;;;;;13.10;9.10;;;;;;;17.05;100.00;101243.34;108254;1251;60259;-57
2023/08/16 03:48:53;;;;;;;11.70;8.90;;;;;;;17.05;100.00;101250.89;108770;1251;58600;-60
2023/08/16 03:51:20;;;;;;;16.70;8.80;;;;;;;17.04;100.00;101250.11;108507;1253;59708;-61
2023/08/16 03:53:46;;;;;;;14.80;8.80;;;;;;;17.04;100.00;101256.30;108206;1251;60933;-55
2023/08/16 03:56:13;;;;;;;13.60;9.10;;;;;;;17.04;100.00;101257.73;108432;1253;59369;-60
2023/08/16 03:58:39;;;;;;;14.80;8.70;;;;;;;17.03;100.00;101254.80;108195;1254;60372;-59
2023/08/16 04:01:06;;;;;;;14.30;8.70;;;;;;;17.01;100.00;101255.54;108344;1253;61257;-56
2023/08/16 04:03:32;;;;;;;12.30;8.30;;;;;;;17.00;100.00;101258.67;108405;1251;58269;-58
2023/08/16 04:05:59;;;;;;;15.40;8.80;;;;;;;16.99;100.00;101265.23;108336;1254;61003;-56
2023/08/16 04:08:25;;;;;;;16.70;8.60;;;;;;;16.98;100.00;101262.55;108647;1251;59733;-53
2023/08/16 04:10:52;;;;;;;16.80;8.40;;;;;;;16.97;100.00;101258.13;108563;1251;59197;-58
2023/08/16 04:13:18;;;;;;;11.20;8.20;;;;;;;16.95;100.00;101262.04;108167;1254;58353;-60
2023/08/16 04:15:44;;;;;;;13.30;8.00;;;;;;;16.94;100.00;101266.04;108931;1252;58435;-59
2023/08/16 04:18:11;;;;;;;12.40;7.30;;;;;;;16.93;100.00;101262.94;108009;1252;60537;-59
2023/08/16 04:20:37;;;;;;;14.80;8.00;;;;;;;16.92;100.00;101268.72;108301;1251;60306;-59
2023/08/16 04:23:04;;;;;;;13.90;7.60;;;;;;;16.92;100.00;101270.33;108123;1251;61014;-55
2023/08/16 04:25:30;;;;;;;12.70;7.60;;;;;;;16.93;100.00;101274.29;108571;1251;60452;-59
2023/08/16 04:27:57;;;;;;;12.60;7.40;;;;;;;16.95;100.00;101274.91;108724;1251;59105;-57
2023/08/16 04:30:23;;;;;;;12.30;7.80;;;;;;;16.97;100.00;101276.60;108066;1253;60520;-56
2023/08/16 04:32:50;;;;;;;14.00;7.70;;;;;;;17.01;100.00;101279.58;108728;1251;59927;-56
2023/08/16 04:35:16;;;;;;;12.30;7.80;;;;;;;17.04;100.00;101284.79;107985;1252;60555;-59
2023/08/16 04:37:43;;;;;;;12.90;7.20;;;;;;;17.08;100.00;101287.85;108474;1251;59329;-57
2023/08/16 04:40:10;;;;;;;11.50;7.50;;;;;;;17.13;100.00;101289.38;107961;1253;59338;-56
2023/08/16 04:42:37;;;;;;;10.00;7.00;;;;;;;17.17;100.00;101290.21;108708;1251;71546;-58
2023/08/16 04:45:04;;;;;;;12.20;7.20;;;;;;;17.23;100.00;101292.93;108221;1253;61696;-57
2023/08/16 04:47:31;;;;;;;11.20;7.30;;;;;;;17.27;100.00;101293.92;108815;1252;59228;-59
2023/08/16 04:49:58;;;;;;;13.30;6.90;;;;;;;17.31;100.00;101296.54;108382;1251;58979;-58
2023/08/16 04:52:26;;;;;;;10.80;6.90;;;;;;;17.37;100.00;101295.51;108492;1252;71174;-59
2023/08/16 04:54:52;;;;;;;10.40;6.30;;;;;;;17.41;100.00;101298.52;108439;1252;72766;-61
2023/08/16 04:57:19;;;;;;;11.50;6.70;;;;;;;17.45;100.00;101302.81;108045;1252;60426;-60
2023/08/16 04:59:45;;;;;;;12.10;6.50;;;;;;;17.49;100.00;101307.44;108893;1254;60485;-59
2023/08/16 05:02:12;;;;;;;11.00;6.90;;;;;;;17.53;100.00;101304.23;109045;1251;58545;-60
2023/08/16 05:04:38;;;;;;;11.50;6.10;;;;;;;17.60;100.00;101300.77;109022;1252;60447;-52
2023/08/16 05:07:05;;;;;;;10.70;6.80;;;;;;;17.68;100.00;101300.76;108443;1252;59205;-54
2023/08/16 05:09:31;;;;;;;10.70;6.50;;;;;;;17.77;100.00;101300.34;109010;1251;58278;-55
2023/08/16 05:11:58;;;;;;;11.00;6.40;;;;;;;17.83;100.00;101301.88;108494;1251;58569;-53
2023/08/16 05:14:24;;;;;;;10.20;5.70;;;;;;;17.88;100.00;101305.65;108271;1253;60504;-51
2023/08/16 05:16:50;;;;;;;27.10;15.80;;;;;;;17.93;100.00;101312.23;108685;1251;58546;-53
2023/08/16 05:19:17;;;;;;;219.00;175.80;;;;;;;18.13;100.00;101313.40;108716;1251;58166;-55
2023/08/16 05:21:43;;;;;;;52.50;37.30;;;;;;;18.50;100.00;101316.64;109123;1253;59166;-54
2023/08/16 05:24:12;;;;;;;8.00;4.80;;;;;;;18.98;100.00;101320.98;108938;1254;59505;-55
2023/08/16 05:26:39;;;;;;;15.80;7.40;;;;;;;19.16;100.00;101331.70;108473;1252;72910;-56
2023/08/16 05:29:05;;;;;;;8.30;4.40;;;;;;;19.49;100.00;101340.71;108395;1252;70083;-53
2023/08/16 05:31:32;;;;;;;6.30;3.80;;;;;;;19.85;100.00;101345.80;108727;1251;58588;-55
2023/08/16 05:33:58;;;;;;;7.50;4.50;;;;;;;20.02;100.00;101350.79;108060;1252;60389;-52
2023/08/16 05:36:28;;;;;;;11.60;5.00;;;;;;;20.11;100.00;101352.21;108372;1252;58601;-51
2023/08/16 05:38:55;;;;;;;4.80;3.40;;;;;;;20.41;100.00;101355.47;108535;1251;71675;-55
2023/08/16 05:41:21;;;;;;;7.30;3.10;;;;;;;20.62;99.98;101354.80;108342;1252;69981;-52
2023/08/16 05:43:48;;;;;;;5.10;3.30;;;;;;;20.70;98.27;101355.88;108303;1251;59861;-53
2023/08/16 05:46:15;;;;;;;4.90;3.00;;;;;;;20.70;97.12;101351.56;108485;1252;59641;-56
2023/08/16 05:48:41;;;;;;;6.30;2.90;;;;;;;20.77;96.61;101353.80;108659;1253;60378;-55
2023/08/16 05:51:08;;;;;;;5.50;3.10;;;;;;;20.82;95.36;101357.27;108531;1251;60606;-51
2023/08/16 05:53:34;;;;;;;7.70;3.30;;;;;;;20.98;95.24;101357.67;108523;1251;60549;-52
2023/08/16 05:56:01;;;;;;;4.10;2.90;;;;;;;21.11;94.22;101355.31;108439;1252;60445;-55
2023/08/16 05:58:28;;;;;;;4.80;2.40;;;;;;;21.15;93.19;101352.41;109068;1252;62993;-54
2023/08/16 06:00:55;;;;;;;6.20;2.70;;;;;;;21.17;92.42;101348.45;108303;1253;60533;-52
2023/08/16 06:03:22;;;;;;;7.20;2.80;;;;;;;21.20;91.68;101345.14;108595;1252;72707;-52
2023/08/16 06:05:49;;;;;;;4.30;2.20;;;;;;;21.31;91.08;101343.36;108611;1252;71188;-52
2023/08/16 06:08:16;;;;;;;6.20;2.70;;;;;;;21.38;90.69;101345.58;108479;1251;58855;-53
2023/08/16 06:10:42;;;;;;;4.50;2.20;;;;;;;21.39;89.64;101348.13;108314;1252;60426;-54
2023/08/16 06:13:09;;;;;;;9.00;2.90;;;;;;;21.37;88.78;101353.62;108227;1251;60432;-51
2023/08/16 06:15:35;;;;;;;6.20;2.80;;;;;;;21.41;89.47;101358.11;108855;1251;60406;-56
2023/08/16 06:18:02;;;;;;;5.30;2.40;;;;;;;21.60;88.93;101359.52;108406;1252;59157;-52
2023/08/16 06:20:28;;;;;;;4.20;2.20;;;;;;;21.71;87.81;101364.93;108769;1252;58400;-54
2023/08/16 06:22:55;;;;;;;6.20;3.30;;;;;;;21.70;86.86;101364.63;108282;1251;59250;-52
2023/08/16 06:25:21;;;;;;;21.20;16.20;;;;;;;21.73;86.77;101366.15;109023;1251;58895;-50
2023/08/16 06:27:48;;;;;;;6.80;2.30;;;;;;;21.72;86.87;101366.04;108352;1252;58447;-56
2023/08/16 06:30:15;;;;;;;5.60;2.30;;;;;;;21.87;87.09;101372.50;108577;1252;71191;-54
2023/08/16 06:32:42;;;;;;;5.50;2.70;;;;;;;22.02;86.56;101372.52;108640;1252;72995;-50
2023/08/16 06:35:09;;;;;;;7.60;4.70;;;;;;;22.04;85.27;101370.50;108000;1253;59225;-52
2023/08/16 06:37:38;;;;;;;12.80;6.40;;;;;;;22.00;84.80;101367.03;108267;1252;60083;-53
2023/08/16 06:40:06;;;;;;;23.10;16.20;;;;;;;21.91;84.35;101366.93;108390;1252;74469;-54
2023/08/16 06:42:34;;;;;;;6.10;2.90;;;;;;;21.89;84.48;101368.22;108134;1253;71848;-55
2023/08/16 06:45:01;;;;;;;10.60;6.10;;;;;;;21.89;84.14;101372.55;108655;1253;72672;-53
2023/08/16 06:47:27;;;;;;;77.70;62.40;;;;;;;21.92;83.68;101375.27;108357;1253;62247;-57
2023/08/16 06:49:54;;;;;;;6.80;3.30;;;;;;;22.08;83.62;101373.50;108658;1252;60382;-51
2023/08/16 06:52:21;;;;;;;6.00;3.10;;;;;;;22.16;82.43;101376.14;108256;1252;73764;-52
2023/08/16 06:54:48;;;;;;;35.60;29.50;;;;;;;22.15;82.40;101381.63;108232;1253;60489;-52
2023/08/16 06:57:14;;;;;;;51.70;38.50;;;;;;;22.14;82.05;101385.70;108194;1252;71154;-52
2023/08/16 06:59:41;;;;;;;18.40;13.10;;;;;;;22.20;81.83;101387.39;107812;1252;226253;-51
2023/08/16 07:02:11;;;;;;;5.20;3.00;;;;;;;22.27;81.35;101388.90;108324;1253;60336;-53
2023/08/16 07:04:40;;;;;;;15.20;9.60;;;;;;;22.35;81.06;101393.83;108335;1252;73929;-51
2023/08/16 07:07:07;;;;;;;18.00;11.40;;;;;;;22.39;81.05;101395.39;108308;1251;70509;-52
2023/08/16 07:09:34;;;;;;;9.60;5.60;;;;;;;22.38;80.11;101401.14;108293;1252;71471;-54
2023/08/16 07:12:00;;;;;;;23.10;14.50;;;;;;;22.23;79.84;101403.60;108249;1252;58494;-53
2023/08/16 07:14:27;;;;;;;12.10;5.40;;;;;;;22.21;80.44;101411.64;108218;1252;59097;-51
2023/08/16 07:16:53;;;;;;;23.00;17.10;;;;;;;22.20;80.35;101416.39;108495;1252;59052;-54
2023/08/16 07:19:20;;;;;;;59.40;46.20;;;;;;;22.19;80.59;101416.90;107910;1251;71030;-52
2023/08/16 07:21:48;;;;;;;34.40;25.30;;;;;;;22.15;80.17;101417.29;108200;1252;73807;-52
2023/08/16 07:24:14;;;;;;;7.20;3.90;;;;;;;22.07;79.06;101419.25;108539;1256;62028;-58
2023/08/16 07:26:41;;;;;;;16.90;13.00;;;;;;;22.05;79.90;101423.55;108400;1252;59143;-54
2023/08/16 07:29:07;;;;;;;8.10;4.60;;;;;;;22.17;80.09;101425.52;108189;1253;60434;-48
2023/08/16 07:31:34;;;;;;;4.70;2.50;;;;;;;22.26;79.43;101424.92;108612;1251;59191;-55
2023/08/16 07:34:00;;;;;;;11.60;7.90;;;;;;;22.43;79.28;101424.93;109123;1252;58339;-53
2023/08/16 07:36:28;;;;;;;47.30;34.20;;;;;;;22.56;78.20;101418.79;108761;1252;59160;-52
2023/08/16 07:38:56;;;;;;;13.30;8.40;;;;;;;22.65;77.46;101422.00;108228;1252;60320;-50
2023/08/16 07:41:23;;;;;;;14.60;9.30;;;;;;;22.70;76.91;101418.38;108643;1253;58427;-51
2023/08/16 07:43:52;;;;;;;7.40;2.40;;;;;;;22.79;76.37;101413.32;108758;1253;60356;-53
2023/08/16 07:46:18;;;;;;;9.90;5.30;;;;;;;22.85;75.98;101414.20;108614;1253;72032;-51
2023/08/16 07:48:45;;;;;;;18.80;12.50;;;;;;;22.91;75.37;101411.23;108288;1252;60423;-53
2023/08/16 07:51:11;;;;;;;11.30;6.00;;;;;;;22.95;74.56;101412.95;108271;1253;60461;-48
2023/08/16 07:53:38;;;;;;;21.90;16.10;;;;;;;23.01;73.83;101415.18;108984;1252;60301;-49
2023/08/16 07:56:04;;;;;;;6.00;2.80;;;;;;;23.06;73.10;101417.89;108571;1253;58257;-56
2023/08/16 07:58:31;;;;;;;5.00;1.50;;;;;;;23.12;72.76;101415.47;108933;1253;58441;-53
2023/08/16 08:00:57;;;;;;;28.80;21.00;;;;;;;23.22;71.83;101417.11;108295;1253;58318;-52
2023/08/16 08:03:24;;;;;;;6.50;1.70;;;;;;;23.30;71.91;101418.84;108709;1252;60428;-51
2023/08/16 08:05:50;;;;;;;3.50;1.30;;;;;;;23.38;71.58;101428.41;108389;1252;59168;-56
2023/08/16 08:08:17;;;;;;;4.10;1.60;;;;;;;23.43;70.67;101428.28;108580;1252;59210;-53
2023/08/16 08:10:44;;;;;;;3.60;1.20;;;;;;;23.46;70.06;101430.17;108898;1252;58382;-54
2023/08/16 08:13:11;;;;;;;3.70;1.20;;;;;;;23.52;70.78;101430.98;108146;1253;62008;-53
2023/08/16 08:15:37;;;;;;;5.50;1.50;;;;;;;23.60;70.99;101434.16;108185;1253;59191;-55
2023/08/16 08:18:04;;;;;;;3.10;1.50;;;;;;;23.69;71.19;101432.31;108589;1252;58770;-52
2023/08/16 08:20:31;;;;;;;4.90;1.50;;;;;;;23.69;70.85;101430.10;108848;1252;71125;-54
2023/08/16 08:22:57;;;;;;;5.50;1.60;;;;;;;23.73;70.49;101431.42;108152;1253;59572;-55
2023/08/16 08:25:24;;;;;;;3.80;1.40;;;;;;;23.82;70.20;101428.77;108249;1256;58453;-53
2023/08/16 08:27:51;;;;;;;5.40;1.60;;;;;;;23.92;71.06;101432.02;108503;1252;59218;-49
2023/08/16 08:30:18;;;;;;;5.70;1.50;;;;;;;24.06;70.48;101433.00;108009;1253;74606;-54
2023/08/16 08:32:45;;;;;;;3.90;1.50;;;;;;;24.14;69.59;101439.26;108755;1253;69988;-58
2023/08/16 08:35:12;;;;;;;5.90;1.50;;;;;;;24.24;68.50;101444.40;108049;1253;61122;-49
2023/08/16 08:37:38;;;;;;;5.90;1.80;;;;;;;24.43;69.13;101444.36;108613;1252;61624;-53
2023/08/16 08:40:05;;;;;;;5.30;1.60;;;;;;;24.59;67.82;101448.36;108472;1252;58938;-56
2023/08/16 08:42:32;;;;;;;4.10;1.30;;;;;;;24.73;67.42;101449.52;108090;1252;72345;-50
2023/08/16 08:44:59;;;;;;;5.10;1.40;;;;;;;24.88;65.55;101454.15;108300;1253;59141;-55
2023/08/16 08:47:28;;;;;;;3.00;1.20;;;;;;;25.01;64.16;101453.49;108133;1253;71432;-55
2023/08/16 08:49:57;;;;;;;4.90;1.40;;;;;;;25.09;63.59;101451.38;107669;1253;61222;-56
2023/08/16 08:52:24;;;;;;;3.70;1.30;;;;;;;25.10;63.17;101448.02;108709;1252;60362;-54
2023/08/16 08:54:51;;;;;;;4.20;1.10;;;;;;;25.08;62.91;101449.46;108574;1252;72659;-53
2023/08/16 08:57:19;;;;;;;4.20;1.50;;;;;;;25.06;63.19;101449.92;108580;1253;60451;-54
2023/08/16 08:59:49;;;;;;;4.10;1.40;;;;;;;25.03;63.10;101453.64;108187;1252;72772;-53
2023/08/16 09:02:17;;;;;;;5.00;1.20;;;;;;;24.93;61.61;101454.11;108526;1252;60259;-54
2023/08/16 09:04:46;;;;;;;4.60;1.20;;;;;;;24.79;61.66;101456.36;108357;1253;61261;-54
2023/08/16 09:07:17;;;;;;;3.70;1.00;;;;;;;24.75;62.52;101451.82;108030;1252;73550;-54
2023/08/16 09:09:46;;;;;;;3.50;1.40;;;;;;;24.71;62.34;101449.98;108253;1252;69712;-54
2023/08/16 09:12:14;;;;;;;3.80;1.40;;;;;;;24.74;63.85;101445.57;108460;1252;72767;-57
2023/08/16 09:14:41;;;;;;;3.00;1.10;;;;;;;24.93;65.13;101445.25;108551;1253;60802;-57
2023/08/16 09:17:07;;;;;;;3.20;1.40;;;;;;;25.14;65.01;101450.23;108369;1253;58338;-51
2023/08/16 09:19:43;;;;;;;4.70;1.50;;;;;;;25.28;63.74;101444.38;108268;1253;60375;-53
2023/08/16 09:22:11;;;;;;;4.30;1.30;;;;;;;25.29;63.02;101445.05;108112;1252;71627;-56
2023/08/16 09:24:43;;;;;;;4.70;1.30;;;;;;;25.38;64.08;101436.45;108161;1253;72740;-52
2023/08/16 09:27:10;;;;;;;4.80;1.20;;;;;;;25.56;63.87;101435.38;108261;1253;61746;-53
2023/08/16 09:29:40;;;;;;;3.20;1.30;;;;;;;25.72;63.99;101434.22;108446;1255;59229;-53
2023/08/16 09:32:08;;;;;;;3.70;1.40;;;;;;;25.89;63.17;101432.73;108827;1253;72528;-52
2023/08/16 09:34:35;;;;;;;6.10;1.50;;;;;;;26.04;62.99;101430.42;108060;1252;70896;-54
2023/08/16 09:37:18;;;;;;;4.40;1.40;;;;;;;26.21;62.80;101423.37;107946;1252;72445;-54
2023/08/16 09:39:58;;;;;;;4.60;1.40;;;;;;;26.35;61.48;101426.00;108164;1252;59352;-54
2023/08/16 09:42:32;;;;;;;4.20;1.50;;;;;;;26.35;60.95;101430.42;108368;1252;60427;-54
2023/08/16 09:44:59;;;;;;;4.50;1.70;;;;;;;26.35;60.37;101432.97;108550;1252;73830;-57
2023/08/16 09:47:28;;;;;;;4.40;1.50;;;;;;;26.37;60.61;101427.92;108313;1253;70043;-56
2023/08/16 09:50:17;;;;;;;4.20;1.70;;;;;;;26.33;59.20;101427.14;109037;1252;71277;-55
2023/08/16 09:52:44;;;;;;;5.20;1.60;;;;;;;26.23;60.08;101424.91;108661;1252;62409;-55
2023/08/16 09:55:11;;;;;;;4.10;1.40;;;;;;;26.27;60.69;101427.91;108965;1252;60948;-52
2023/08/16 09:57:38;;;;;;;5.30;1.30;;;;;;;26.29;60.99;101426.45;108291;1252;73209;-46
2023/08/16 10:00:07;;;;;;;4.40;1.40;;;;;;;26.25;60.46;101425.90;108360;1253;69937;-53
2023/08/16 10:02:34;;;;;;;4.10;1.70;;;;;;;26.19;60.56;101423.26;108511;1252;72811;-50
2023/08/16 10:05:04;;;;;;;4.50;1.60;;;;;;;26.21;61.78;101422.60;108405;1253;59461;-53
2023/08/16 10:07:31;;;;;;;4.60;1.50;;;;;;;26.26;61.73;101423.17;108767;1252;59003;-55
2023/08/16 10:09:58;;;;;;;4.30;1.60;;;;;;;26.29;61.49;101422.43;108409;1253;73916;-51
2023/08/16 10:12:27;;;;;;;3.60;1.60;;;;;;;26.36;62.05;101415.46;108140;1252;70295;-51
2023/08/16 10:14:54;;;;;;;5.90;1.50;;;;;;;26.45;60.74;101415.34;108277;1252;71456;-51
2023/08/16 10:17:21;;;;;;;4.60;1.50;;;;;;;26.36;58.64;101412.09;108757;1253;58421;-56
2023/08/16 10:19:51;;;;;;;4.20;1.70;;;;;;;26.26;59.07;101405.27;108286;1253;59870;-52
2023/08/16 10:22:23;;;;;;;3.90;1.90;;;;;;;26.26;60.70;101402.08;108365;1252;72638;-53
2023/08/16 10:24:54;;;;;;;5.20;1.80;;;;;;;26.36;61.18;101400.89;108627;1252;69935;-54
2023/08/16 10:27:22;;;;;;;4.60;1.80;;;;;;;26.44;60.47;101395.48;108581;1253;72488;-53
2023/08/16 10:29:54;;;;;;;3.60;1.20;;;;;;;26.52;60.63;101390.23;108699;1253;60917;-52
2023/08/16 10:32:24;;;;;;;4.90;1.70;;;;;;;26.61;59.72;101393.20;108126;1253;60421;-50
2023/08/16 10:34:54;;;;;;;4.50;1.60;;;;;;;26.63;59.90;101394.46;108450;1252;73050;-53
2023/08/16 10:37:21;;;;;;;3.10;1.50;;;;;;;26.69;60.42;101397.91;108813;1252;70372;-52
2023/08/16 10:39:51;;;;;;;3.10;1.60;;;;;;;26.75;60.10;101403.98;108579;1253;72543;-51
2023/08/16 10:42:25;;;;;;;5.20;2.00;;;;;;;26.85;59.90;101406.45;108543;1252;59109;-55
2023/08/16 10:44:52;;;;;;;3.80;1.40;;;;;;;26.94;59.53;101410.80;108942;1252;59672;-53
2023/08/16 10:47:29;;;;;;;4.50;1.70;;;;;;;27.03;58.69;101408.63;108345;1255;73947;-52
2023/08/16 10:49:56;;;;;;;3.70;1.60;;;;;;;27.11;57.98;101408.06;108274;1253;70461;-53
2023/08/16 10:52:27;;;;;;;5.60;1.60;;;;;;;27.26;59.40;101403.38;108729;1252;72626;-52
2023/08/16 10:54:57;;;;;;;6.10;1.70;;;;;;;27.45;59.17;101401.50;108379;1252;60806;-50
2023/08/16 10:57:25;;;;;;;4.20;1.30;;;;;;;27.59;58.34;101400.05;109092;1252;59711;-56
2023/08/16 11:00:07;;;;;;;4.10;1.50;;;;;;;27.91;59.08;101405.49;108511;1253;72909;-53
2023/08/16 11:02:36;;;;;;;6.00;1.70;;;;;;;28.18;57.76;101398.54;108970;1252;70952;-55
2023/08/16 11:05:03;;;;;;;4.20;1.50;;;;;;;28.27;55.34;101397.70;109026;1253;71700;-53
2023/08/16 11:07:30;;;;;;;6.60;1.50;;;;;;;28.28;55.64;101399.84;108142;1252;60556;-52
2023/08/16 11:10:00;;;;;;;3.60;1.50;;;;;;;28.37;56.00;101395.93;107858;1252;60410;-50